Time;durP1;ratioP1;P1;durP2;ratioP2;P2;SDS_P1;SDS_P2;PMS_P1;PMS_P2;Temp;Humidity;BMP_temperature;BMP_pressure;BME280_temperature;BME280_humidity;BME280_pressure;Samples;Min_cycle;Max_cycle;Signal;HPM_P1;HPM_P2
2021/10/15 00:00:06;;;;;;;;;;;12.40;99.90;;;;;;5084721;28;19920;-73
2021/10/15 00:02:31;;;;;;;;;;;12.40;99.90;;;;;;5067355;28;19916;-73
2021/10/15 00:04:56;;;;;;;;;;;12.40;99.90;;;;;;5076860;28;19931;-73
2021/10/15 00:07:22;;;;;;;;;;;12.40;99.90;;;;;;5085617;28;19923;-73
2021/10/15 00:09:47;;;;;;;;;;;12.40;99.90;;;;;;5065871;28;19923;-73
2021/10/15 00:12:13;;;;;;;;;;;12.40;99.90;;;;;;5063450;28;19923;-73
2021/10/15 00:14:38;;;;;;;;;;;12.40;99.90;;;;;;5081168;28;19912;-73
2021/10/15 00:17:04;;;;;;;;;;;12.40;99.90;;;;;;5085996;28;19916;-71
2021/10/15 00:19:29;;;;;;;;;;;12.40;99.90;;;;;;5085209;28;19915;-72
2021/10/15 00:21:55;;;;;;;;;;;12.40;99.90;;;;;;5067514;28;20090;-72
2021/10/15 00:24:20;;;;;;;;;;;12.40;99.90;;;;;;5090786;28;19920;-73
2021/10/15 00:26:45;;;;;;;;;;;12.40;99.90;;;;;;5093115;28;19923;-73
2021/10/15 00:29:11;;;;;;;;;;;12.40;99.90;;;;;;5073202;28;19975;-72
2021/10/15 00:31:36;;;;;;;;;;;12.30;99.90;;;;;;5065744;28;20370;-72
2021/10/15 00:34:02;;;;;;;;;;;12.40;99.90;;;;;;5087695;28;19920;-73
2021/10/15 00:36:27;;;;;;;;;;;12.40;99.90;;;;;;5087037;28;19947;-73
2021/10/15 00:38:53;;;;;;;;;;;12.40;99.90;;;;;;5087222;28;19912;-73
2021/10/15 00:41:18;;;;;;;;;;;12.40;99.90;;;;;;5085573;28;19947;-73
2021/10/15 00:44:00;;;;;;;;;;;12.40;99.90;;;;;;5084241;28;20019;-72
2021/10/15 00:46:25;;;;;;;;;;;12.40;99.90;;;;;;5087571;28;19923;-72
2021/10/15 00:48:51;;;;;;;;;;;12.40;99.90;;;;;;5084081;28;19912;-72
2021/10/15 00:51:16;;;;;;;;;;;12.40;99.90;;;;;;5064428;28;19974;-72
2021/10/15 00:53:42;;;;;;;;;;;12.40;99.90;;;;;;5078368;22;19968;-79
2021/10/15 00:56:07;;;;;;;;;;;12.40;99.90;;;;;;5037728;28;20286;-79
2021/10/15 00:58:32;;;;;;;;;;;12.40;99.90;;;;;;5058902;28;20305;-80
2021/10/15 01:00:58;;;;;;;;;;;12.40;99.90;;;;;;5054682;28;20379;-79
2021/10/15 01:03:23;;;;;;;;;;;12.40;99.90;;;;;;5030307;28;19921;-79
2021/10/15 01:05:49;;;;;;;;;;;12.40;99.90;;;;;;5047126;28;19962;-79
2021/10/15 01:08:14;;;;;;;;;;;12.40;99.90;;;;;;5029240;28;19917;-79
2021/10/15 01:10:40;;;;;;;;;;;12.40;99.90;;;;;;5047234;28;20238;-79
2021/10/15 01:13:05;;;;;;;;;;;12.40;99.90;;;;;;5046332;28;20437;-79
2021/10/15 01:15:31;;;;;;;;;;;12.40;99.90;;;;;;5047152;28;19925;-79
2021/10/15 01:17:56;;;;;;;;;;;12.40;99.90;;;;;;5045607;28;19924;-79
2021/10/15 01:20:22;;;;;;;;;;;12.40;99.90;;;;;;5047273;28;20341;-79
2021/10/15 01:22:47;;;;;;;;;;;12.40;99.90;;;;;;5027574;28;19917;-79
2021/10/15 01:25:12;;;;;;;;;;;12.40;99.90;;;;;;5045445;28;19916;-79
2021/10/15 01:27:38;;;;;;;;;;;12.40;99.90;;;;;;5037905;28;19916;-79
2021/10/15 01:30:03;;;;;;;;;;;12.40;99.90;;;;;;5044876;28;19913;-78
2021/10/15 01:32:29;;;;;;;;;;;12.40;99.90;;;;;;5044367;28;20023;-79
2021/10/15 01:34:54;;;;;;;;;;;12.40;99.90;;;;;;5046029;28;20290;-79
2021/10/15 01:37:20;;;;;;;;;;;12.40;99.90;;;;;;5046843;28;20300;-79
2021/10/15 01:39:45;;;;;;;;;;;12.40;99.90;;;;;;5045563;28;19921;-79
2021/10/15 01:42:54;;;;;;;;;;;12.40;99.90;;;;;;5046392;28;19913;-79
2021/10/15 01:44:56;;;;;;;;;;;12.40;99.90;;;;;;5046635;28;19925;-79
2021/10/15 01:47:21;;;;;;;;;;;12.40;99.90;;;;;;5046180;28;20063;-79
2021/10/15 01:49:47;;;;;;;;;;;12.40;99.90;;;;;;5047394;28;19951;-79
2021/10/15 01:52:12;;;;;;;;;;;12.40;99.90;;;;;;5043895;28;20065;-79
2021/10/15 01:54:38;;;;;;;;;;;12.40;99.90;;;;;;5045795;28;20054;-79
2021/10/15 01:57:03;;;;;;;;;;;12.40;99.90;;;;;;5046526;28;19971;-79
2021/10/15 01:59:28;;;;;;;;;;;12.40;99.90;;;;;;5047329;28;20343;-79
2021/10/15 02:01:54;;;;;;;;;;;12.40;99.90;;;;;;5048501;28;19913;-79
2021/10/15 02:04:19;;;;;;;;;;;12.40;99.90;;;;;;5049495;28;20151;-79
2021/10/15 02:06:45;;;;;;;;;;;12.40;99.90;;;;;;5050978;28;19913;-79
2021/10/15 02:09:10;;;;;;;;;;;12.40;99.90;;;;;;5049594;28;20338;-79
2021/10/15 02:11:35;;;;;;;;;;;12.40;99.90;;;;;;5048452;28;20519;-79
2021/10/15 02:14:01;;;;;;;;;;;12.40;99.90;;;;;;5048592;28;19913;-79
2021/10/15 02:16:26;;;;;;;;;;;12.40;99.90;;;;;;5050530;28;19921;-78
2021/10/15 02:18:52;;;;;;;;;;;12.40;99.90;;;;;;5050075;28;20180;-78
2021/10/15 02:21:17;;;;;;;;;;;12.50;99.90;;;;;;5049039;28;19999;-79
2021/10/15 02:23:44;;;;;;;;;;;12.50;99.90;;;;;;5049952;28;19920;-78
2021/10/15 02:26:09;;;;;;;;;;;12.50;99.90;;;;;;5049062;28;19917;-79
2021/10/15 02:28:35;;;;;;;;;;;12.40;99.90;;;;;;5049646;28;19921;-79
2021/10/15 02:31:00;;;;;;;;;;;12.50;99.90;;;;;;5047567;28;19917;-79
2021/10/15 02:33:25;;;;;;;;;;;12.50;99.90;;;;;;5050355;28;19920;-79
2021/10/15 02:35:51;;;;;;;;;;;12.50;99.90;;;;;;5049244;28;19925;-79
2021/10/15 02:38:16;;;;;;;;;;;12.50;99.90;;;;;;5032554;28;19908;-79
2021/10/15 02:40:42;;;;;;;;;;;12.50;99.90;;;;;;5048795;28;20011;-79
2021/10/15 02:43:07;;;;;;;;;;;12.40;99.90;;;;;;5048401;28;19917;-79
2021/10/15 02:45:37;;;;;;;;;;;12.50;99.90;;;;;;5049943;28;19916;-79
2021/10/15 02:48:03;;;;;;;;;;;12.50;99.90;;;;;;5047947;28;19913;-79
2021/10/15 02:50:28;;;;;;;;;;;12.40;99.90;;;;;;5048856;28;19924;-79
2021/10/15 02:52:54;;;;;;;;;;;12.50;99.90;;;;;;5049259;28;19917;-79
2021/10/15 02:55:19;;;;;;;;;;;12.50;99.90;;;;;;5047514;28;19917;-79
2021/10/15 02:57:45;;;;;;;;;;;12.50;99.90;;;;;;5050783;28;20270;-79
2021/10/15 03:00:10;;;;;;;;;;;12.40;99.90;;;;;;5046504;28;20382;-78
2021/10/15 03:02:36;;;;;;;;;;;12.50;99.90;;;;;;5047972;28;19912;-79
2021/10/15 03:05:01;;;;;;;;;;;12.50;99.90;;;;;;5049758;28;20034;-79
2021/10/15 03:07:27;;;;;;;;;;;12.50;99.90;;;;;;5050078;28;19939;-79
2021/10/15 03:09:52;;;;;;;;;;;12.40;99.90;;;;;;5047666;28;19935;-79
2021/10/15 03:12:18;;;;;;;;;;;12.50;99.90;;;;;;5047419;28;19924;-79
2021/10/15 03:14:43;;;;;;;;;;;12.50;99.90;;;;;;5048578;28;20011;-79
2021/10/15 03:17:08;;;;;;;;;;;12.50;99.90;;;;;;5049316;28;20004;-79
2021/10/15 03:19:35;;;;;;;;;;;12.50;99.90;;;;;;5049183;28;20321;-79
2021/10/15 03:22:00;;;;;;;;;;;12.50;99.90;;;;;;5048751;28;19923;-79
2021/10/15 03:24:25;;;;;;;;;;;12.40;99.90;;;;;;5048419;28;20355;-79
2021/10/15 03:26:51;;;;;;;;;;;12.40;99.90;;;;;;5049452;28;20267;-79
2021/10/15 03:29:16;;;;;;;;;;;12.40;99.90;;;;;;5048945;28;20000;-82
2021/10/15 03:31:42;;;;;;;;;;;12.40;99.90;;;;;;5046641;28;20332;-78
2021/10/15 03:34:07;;;;;;;;;;;12.40;99.90;;;;;;5048841;28;19959;-78
2021/10/15 03:36:32;;;;;;;;;;;12.40;99.90;;;;;;5055078;28;19952;-77
2021/10/15 03:38:58;;;;;;;;;;;12.40;99.90;;;;;;5047693;28;20343;-77
2021/10/15 03:41:23;;;;;;;;;;;12.40;99.90;;;;;;5047982;28;19917;-76
2021/10/15 03:43:49;;;;;;;;;;;12.40;99.90;;;;;;5048967;28;19924;-76
2021/10/15 03:46:14;;;;;;;;;;;12.40;99.90;;;;;;5048383;28;19924;-76
2021/10/15 03:48:40;;;;;;;;;;;12.40;99.90;;;;;;5047219;28;20334;-76
2021/10/15 03:51:05;;;;;;;;;;;12.40;99.90;;;;;;5046524;28;20406;-75
2021/10/15 03:53:30;;;;;;;;;;;12.40;99.90;;;;;;5029327;28;20438;-75
2021/10/15 03:55:56;;;;;;;;;;;12.40;99.90;;;;;;5048473;28;19924;-75
2021/10/15 03:58:21;;;;;;;;;;;12.40;99.90;;;;;;5048013;28;19993;-75
2021/10/15 04:00:47;;;;;;;;;;;12.40;99.90;;;;;;5046034;28;19927;-75
2021/10/15 04:03:12;;;;;;;;;;;12.40;99.80;;;;;;5045805;28;19921;-75
2021/10/15 04:05:38;;;;;;;;;;;12.40;99.80;;;;;;5046850;28;19917;-75
2021/10/15 04:08:03;;;;;;;;;;;12.50;99.90;;;;;;5047022;28;19917;-75
2021/10/15 04:10:28;;;;;;;;;;;12.40;99.80;;;;;;5046164;28;19925;-75
2021/10/15 04:12:54;;;;;;;;;;;12.50;99.90;;;;;;5048050;28;19912;-75
2021/10/15 04:15:19;;;;;;;;;;;12.50;99.80;;;;;;5045441;28;19917;-77
2021/10/15 04:17:45;;;;;;;;;;;12.50;99.80;;;;;;5047507;28;20327;-75
2021/10/15 04:20:10;;;;;;;;;;;12.50;99.80;;;;;;5046822;28;19920;-76
2021/10/15 04:22:36;;;;;;;;;;;12.50;99.80;;;;;;5046363;28;20287;-76
2021/10/15 04:25:02;;;;;;;;;;;12.50;99.70;;;;;;5047640;28;19916;-75
2021/10/15 04:27:27;;;;;;;;;;;12.50;99.80;;;;;;5048329;28;20379;-75
2021/10/15 04:29:53;;;;;;;;;;;12.50;99.70;;;;;;5047087;28;20004;-75
2021/10/15 04:32:18;;;;;;;;;;;12.50;99.60;;;;;;5047052;28;20012;-77
2021/10/15 04:34:44;;;;;;;;;;;12.50;99.60;;;;;;5046702;28;20290;-78
2021/10/15 04:37:09;;;;;;;;;;;12.40;99.70;;;;;;5045336;28;19986;-76
2021/10/15 04:39:35;;;;;;;;;;;12.40;99.70;;;;;;5044128;28;19994;-77
2021/10/15 04:42:00;;;;;;;;;;;12.50;99.70;;;;;;5046431;28;19916;-76
2021/10/15 04:44:26;;;;;;;;;;;12.50;99.70;;;;;;5046206;28;19920;-77
2021/10/15 04:46:51;;;;;;;;;;;12.50;99.60;;;;;;5048324;28;19959;-70
2021/10/15 04:49:18;;;;;;;;;;;12.50;99.70;;;;;;5028649;28;19928;-71
2021/10/15 04:51:43;;;;;;;;;;;12.60;99.90;;;;;;5046641;28;19913;-71
2021/10/15 04:54:09;;;;;;;;;;;12.80;99.90;;;;;;5041204;28;20379;-70
2021/10/15 04:56:34;;;;;;;;;;;12.90;99.80;;;;;;5039851;28;19956;-72
2021/10/15 04:59:00;;;;;;;;;;;12.90;99.40;;;;;;5040354;28;20275;-74
2021/10/15 05:01:25;;;;;;;;;;;12.90;99.20;;;;;;5023034;28;19913;-74
2021/10/15 05:03:51;;;;;;;;;;;12.80;99.20;;;;;;5045962;28;20436;-73
2021/10/15 05:06:16;;;;;;;;;;;12.70;99.20;;;;;;5046348;28;20042;-74
2021/10/15 05:09:00;;;;;;;;;;;12.60;99.30;;;;;;5046964;28;20271;-72
2021/10/15 05:11:25;;;;;;;;;;;12.60;99.30;;;;;;5044909;28;19924;-73
2021/10/15 05:13:51;;;;;;;;;;;12.60;99.30;;;;;;5046064;28;20275;-74
2021/10/15 05:16:17;;;;;;;;;;;12.50;99.40;;;;;;5044378;28;19917;-74
2021/10/15 05:18:45;;;;;;;;;;;12.50;99.40;;;;;;5049106;28;19912;-76
2021/10/15 05:21:10;;;;;;;;;;;12.50;99.30;;;;;;5046490;28;20395;-76
2021/10/15 05:23:36;;;;;;;;;;;12.50;99.30;;;;;;5045958;28;19923;-72
2021/10/15 05:26:01;;;;;;;;;;;12.50;99.30;;;;;;5042351;28;20003;-73
2021/10/15 05:28:27;;;;;;;;;;;12.50;99.20;;;;;;5038076;28;19948;-71
2021/10/15 05:30:54;;;;;;;;;;;12.50;99.20;;;;;;5045120;28;19920;-72
2021/10/15 05:33:19;;;;;;;;;;;12.50;99.10;;;;;;5045836;28;19917;-72
2021/10/15 05:35:45;;;;;;;;;;;12.50;99.10;;;;;;5046825;28;19913;-70
2021/10/15 05:38:10;;;;;;;;;;;12.50;99.00;;;;;;5049669;28;20351;-70
2021/10/15 05:40:36;;;;;;;;;;;12.50;98.90;;;;;;5048900;28;19916;-70
2021/10/15 05:43:01;;;;;;;;;;;12.50;98.70;;;;;;5048354;28;19920;-70
2021/10/15 05:45:27;;;;;;;;;;;12.50;98.70;;;;;;5032225;28;19928;-70
2021/10/15 05:47:52;;;;;;;;;;;12.50;98.60;;;;;;5051263;28;19913;-70
2021/10/15 05:50:17;;;;;;;;;;;12.50;98.60;;;;;;5049949;28;19917;-70
2021/10/15 05:52:48;;;;;;;;;;;12.40;98.60;;;;;;5050320;28;19917;-70
2021/10/15 06:00:23;;;;;;;;;;;12.40;98.50;;;;;;5049746;28;19919;-70
2021/10/15 06:02:49;;;;;;;;;;;12.40;98.60;;;;;;5049169;28;20007;-70
2021/10/15 06:14:11;;;;;;;;;;;12.40;98.50;;;;;;5047643;28;19920;-74
2021/10/15 06:16:09;;;;;;;;;;;12.30;98.60;;;;;;5046426;28;19912;-74
2021/10/15 06:18:38;;;;;;;;;;;12.30;98.40;;;;;;5049256;28;19991;-74
2021/10/15 06:21:04;;;;;;;;;;;12.30;98.40;;;;;;5046796;28;20016;-74
2021/10/15 06:23:30;;;;;;;;;;;12.30;98.40;;;;;;5049109;28;20011;-74
2021/10/15 06:26:00;;;;;;;;;;;12.30;98.20;;;;;;5048410;28;19913;-75
2021/10/15 06:28:25;;;;;;;;;;;12.30;98.30;;;;;;5048831;28;19928;-73
2021/10/15 06:30:51;;;;;;;;;;;12.30;98.10;;;;;;5047156;28;19936;-74
2021/10/15 06:33:16;;;;;;;;;;;12.30;98.10;;;;;;5047897;28;20298;-74
2021/10/15 06:35:42;;;;;;;;;;;12.30;98.00;;;;;;5049060;28;20328;-74
2021/10/15 06:38:07;;;;;;;;;;;12.30;98.00;;;;;;5049408;28;19921;-74
2021/10/15 06:40:36;;;;;;;;;;;12.30;98.10;;;;;;5049913;28;20322;-74
2021/10/15 06:43:01;;;;;;;;;;;12.30;98.00;;;;;;5048808;28;19917;-74
2021/10/15 06:45:27;;;;;;;;;;;12.30;98.30;;;;;;5031702;28;20295;-74
2021/10/15 06:47:52;;;;;;;;;;;12.30;97.90;;;;;;5046474;28;20445;-74
2021/10/15 06:50:18;;;;;;;;;;;12.30;98.00;;;;;;5046928;28;20398;-74
2021/10/15 06:52:46;;;;;;;;;;;12.30;97.70;;;;;;5080104;22;19950;-71
2021/10/15 06:55:13;;;;;;;;;;;12.40;97.80;;;;;;5084209;28;20370;-72
2021/10/15 06:57:38;;;;;;;;;;;12.40;97.70;;;;;;5086531;28;20004;-71
2021/10/15 07:00:04;;;;;;;;;;;12.40;97.70;;;;;;5087398;28;19981;-71
2021/10/15 07:02:29;;;;;;;;;;;12.40;97.70;;;;;;5083246;28;19920;-71
2021/10/15 07:04:55;;;;;;;;;;;12.40;97.70;;;;;;5086102;28;19926;-71
2021/10/15 07:07:20;;;;;;;;;;;12.40;97.70;;;;;;5088231;28;19916;-71
2021/10/15 07:09:45;;;;;;;;;;;12.40;97.50;;;;;;5089537;28;19919;-71
2021/10/15 07:12:11;;;;;;;;;;;12.50;97.60;;;;;;5081124;28;20022;-71
2021/10/15 07:14:36;;;;;;;;;;;12.50;97.60;;;;;;5087557;28;20309;-71
2021/10/15 07:17:02;;;;;;;;;;;12.50;97.60;;;;;;5088100;28;19955;-71
2021/10/15 07:19:27;;;;;;;;;;;12.50;97.70;;;;;;5079822;28;19916;-71
2021/10/15 07:21:53;;;;;;;;;;;12.50;97.50;;;;;;5084035;28;19965;-71
2021/10/15 07:24:18;;;;;;;;;;;12.50;97.50;;;;;;5088548;28;19923;-71
2021/10/15 07:26:43;;;;;;;;;;;12.60;97.50;;;;;;5085686;28;20008;-70
2021/10/15 07:29:09;;;;;;;;;;;12.60;97.30;;;;;;5086457;28;19927;-72
2021/10/15 07:31:35;;;;;;;;;;;12.60;97.20;;;;;;5085026;28;19916;-70
2021/10/15 07:34:01;;;;;;;;;;;12.60;97.30;;;;;;5060684;28;19951;-69
2021/10/15 07:36:26;;;;;;;;;;;12.70;97.40;;;;;;5084277;28;19922;-70
2021/10/15 07:38:52;;;;;;;;;;;12.70;97.30;;;;;;5088474;28;19916;-72
2021/10/15 07:41:18;;;;;;;;;;;12.80;97.20;;;;;;5085359;28;20026;-72
2021/10/15 07:43:43;;;;;;;;;;;12.80;97.10;;;;;;5088860;28;19916;-71
2021/10/15 07:46:08;;;;;;;;;;;12.80;97.10;;;;;;5063570;28;20220;-72
2021/10/15 07:48:34;;;;;;;;;;;12.80;96.90;;;;;;5082931;28;19916;-72
2021/10/15 07:50:59;;;;;;;;;;;12.90;96.90;;;;;;5060322;28;19918;-71
2021/10/15 07:53:25;;;;;;;;;;;12.90;97.00;;;;;;5082224;28;19931;-71
2021/10/15 07:55:50;;;;;;;;;;;13.00;96.90;;;;;;5086570;28;19920;-70
2021/10/15 07:58:16;;;;;;;;;;;13.00;96.70;;;;;;5077160;28;19969;-71
2021/10/15 08:00:41;;;;;;;;;;;13.10;96.70;;;;;;5081056;28;19916;-70
2021/10/15 08:03:07;;;;;;;;;;;13.10;96.60;;;;;;5067710;28;19977;-70
2021/10/15 08:05:33;;;;;;;;;;;13.20;96.50;;;;;;5082448;28;19973;-72
2021/10/15 08:07:58;;;;;;;;;;;13.30;96.40;;;;;;5084951;28;19957;-73
2021/10/15 08:10:24;;;;;;;;;;;13.30;96.40;;;;;;5065842;28;19977;-72
2021/10/15 08:12:49;;;;;;;;;;;13.40;96.40;;;;;;5083885;28;19974;-73
2021/10/15 08:15:15;;;;;;;;;;;13.40;96.10;;;;;;5084325;28;19916;-72
2021/10/15 08:17:41;;;;;;;;;;;13.40;96.30;;;;;;5086868;28;20005;-73
2021/10/15 08:20:07;;;;;;;;;;;13.40;96.20;;;;;;5081522;28;19916;-73
2021/10/15 08:22:33;;;;;;;;;;;13.40;96.10;;;;;;5076918;28;20007;-73
2021/10/15 08:24:58;;;;;;;;;;;13.50;96.00;;;;;;5086727;28;20358;-72
2021/10/15 08:27:23;;;;;;;;;;;13.40;96.10;;;;;;5082841;28;19965;-73
2021/10/15 08:29:49;;;;;;;;;;;13.50;96.20;;;;;;5084986;28;19916;-70
2021/10/15 08:32:14;;;;;;;;;;;13.40;96.20;;;;;;5082591;28;20337;-71
2021/10/15 08:34:40;;;;;;;;;;;13.50;96.10;;;;;;5065335;28;20339;-73
2021/10/15 08:37:05;;;;;;;;;;;13.50;96.10;;;;;;5083315;28;19912;-72
2021/10/15 08:39:31;;;;;;;;;;;13.40;96.10;;;;;;5086109;28;20034;-72
2021/10/15 08:41:57;;;;;;;;;;;13.40;96.20;;;;;;5085634;28;20374;-72
2021/10/15 08:44:27;;;;;;;;;;;13.40;96.30;;;;;;5076120;28;19969;-72
2021/10/15 08:46:52;;;;;;;;;;;13.30;96.40;;;;;;5061141;28;20350;-72
2021/10/15 08:49:18;;;;;;;;;;;13.40;96.20;;;;;;5084585;28;20007;-72
2021/10/15 08:51:44;;;;;;;;;;;13.40;96.30;;;;;;5080362;28;19920;-72
2021/10/15 08:54:10;;;;;;;;;;;13.40;96.30;;;;;;5084551;28;19927;-72
2021/10/15 08:56:40;;;;;;;;;;;13.40;96.30;;;;;;5069118;28;20002;-73
2021/10/15 08:59:07;;;;;;;;;;;13.40;96.20;;;;;;5082249;28;20374;-73
2021/10/15 09:01:59;;;;;;;;;;;13.40;96.20;;;;;;5081564;28;19977;-74
2021/10/15 09:04:25;;;;;;;;;;;13.40;96.20;;;;;;5069972;28;19920;-73
2021/10/15 09:06:50;;;;;;;;;;;13.30;96.80;;;;;;5086754;28;20401;-72
2021/10/15 09:09:28;;;;;;;;;;;13.20;97.20;;;;;;5081874;28;19916;-71
2021/10/15 09:12:05;;;;;;;;;;;13.10;97.60;;;;;;5084742;28;19918;-70
2021/10/15 09:14:30;;;;;;;;;;;13.00;98.30;;;;;;5084681;28;19916;-70
2021/10/15 09:17:17;;;;;;;;;;;12.90;98.60;;;;;;5081846;28;20272;-69
2021/10/15 09:19:44;;;;;;;;;;;12.80;99.00;;;;;;5065010;28;20400;-71
2021/10/15 09:22:11;;;;;;;;;;;12.70;99.40;;;;;;5082305;28;19942;-71
2021/10/15 09:24:42;;;;;;;;;;;12.60;99.50;;;;;;5077935;28;20313;-71
2021/10/15 09:27:10;;;;;;;;;;;12.60;99.90;;;;;;5085098;28;19946;-71
2021/10/15 09:29:40;;;;;;;;;;;12.50;99.90;;;;;;5082866;28;19931;-71
2021/10/15 09:32:05;;;;;;;;;;;12.50;99.90;;;;;;5081346;28;19991;-71
2021/10/15 09:34:32;;;;;;;;;;;12.40;99.90;;;;;;5080295;28;20011;-71
2021/10/15 09:36:57;;;;;;;;;;;12.40;99.90;;;;;;5082851;28;19912;-74
2021/10/15 09:39:24;;;;;;;;;;;12.40;99.90;;;;;;5082512;28;19927;-70
2021/10/15 09:41:50;;;;;;;;;;;12.30;99.90;;;;;;5082315;28;19969;-71
2021/10/15 09:44:29;;;;;;;;;;;12.30;99.90;;;;;;5083123;28;19923;-72
2021/10/15 09:47:11;;;;;;;;;;;12.20;99.90;;;;;;5066886;28;19920;-73
2021/10/15 09:49:47;;;;;;;;;;;12.20;99.90;;;;;;5065393;28;20280;-73
2021/10/15 09:52:21;;;;;;;;;;;12.10;99.90;;;;;;5080460;28;20488;-75
2021/10/15 09:54:54;;;;;;;;;;;12.00;99.90;;;;;;5076141;28;19916;-73
2021/10/15 09:57:33;;;;;;;;;;;12.00;99.90;;;;;;5079348;28;19912;-74
2021/10/15 09:59:59;;;;;;;;;;;11.90;99.90;;;;;;5058757;28;19935;-75
2021/10/15 10:02:24;;;;;;;;;;;11.70;99.90;;;;;;5082754;28;20339;-75
2021/10/15 10:04:51;;;;;;;;;;;11.70;99.90;;;;;;5059099;28;19956;-74
2021/10/15 10:07:17;;;;;;;;;;;11.60;99.90;;;;;;5084011;28;19923;-75
2021/10/15 10:09:43;;;;;;;;;;;11.50;99.90;;;;;;5081375;28;19912;-76
2021/10/15 10:12:09;;;;;;;;;;;11.50;99.90;;;;;;5080254;28;19922;-74
2021/10/15 10:14:35;;;;;;;;;;;11.50;99.90;;;;;;5082733;28;20418;-74
2021/10/15 10:17:00;;;;;;;;;;;11.40;99.90;;;;;;5082194;28;19921;-73
2021/10/15 10:19:28;;;;;;;;;;;11.40;99.90;;;;;;5076516;28;19916;-73
2021/10/15 10:21:54;;;;;;;;;;;11.40;99.90;;;;;;5084720;28;19976;-73
2021/10/15 10:24:22;;;;;;;;;;;11.40;99.90;;;;;;5084711;28;19924;-73
2021/10/15 10:26:49;;;;;;;;;;;11.40;99.90;;;;;;5058644;28;19912;-72
2021/10/15 10:29:15;;;;;;;;;;;11.50;99.90;;;;;;5088351;28;20014;-72
2021/10/15 10:31:40;;;;;;;;;;;11.50;99.90;;;;;;5071268;28;20356;-73
2021/10/15 10:34:07;;;;;;;;;;;11.50;99.90;;;;;;5069914;28;19924;-75
2021/10/15 10:36:34;;;;;;;;;;;11.50;99.90;;;;;;5066888;28;19916;-74
2021/10/15 10:39:36;;;;;;;;;;;11.50;99.90;;;;;;5085812;28;19912;-74
2021/10/15 10:42:11;;;;;;;;;;;11.50;99.90;;;;;;5015707;28;20478;-74
2021/10/15 10:44:59;;;;;;;;;;;11.60;99.90;;;;;;5076505;28;20335;-74
2021/10/15 10:47:25;;;;;;;;;;;11.50;99.90;;;;;;5059340;28;20603;-72
2021/10/15 10:50:04;;;;;;;;;;;11.50;99.90;;;;;;5086348;28;19921;-72
2021/10/15 10:52:34;;;;;;;;;;;11.50;99.90;;;;;;5083784;28;19919;-73
2021/10/15 10:55:00;;;;;;;;;;;11.50;99.90;;;;;;5085136;28;19969;-73
2021/10/15 10:57:29;;;;;;;;;;;11.50;99.90;;;;;;5088931;28;19916;-73
2021/10/15 11:00:15;;;;;;;;;;;11.50;99.90;;;;;;5085413;28;20270;-73
2021/10/15 11:02:44;;;;;;;;;;;11.60;99.90;;;;;;5084856;28;19999;-73
2021/10/15 11:05:10;;;;;;;;;;;11.70;99.90;;;;;;5062141;28;19970;-74
2021/10/15 11:07:35;;;;;;;;;;;11.70;99.90;;;;;;5089561;28;19951;-74
2021/10/15 11:10:05;;;;;;;;;;;11.70;99.90;;;;;;5086952;28;20394;-74
2021/10/15 11:12:30;;;;;;;;;;;11.70;99.90;;;;;;5084820;28;20294;-73
2021/10/15 11:14:57;;;;;;;;;;;11.70;99.90;;;;;;5091024;28;20479;-77
2021/10/15 11:17:27;;;;;;;;;;;11.70;99.90;;;;;;5070232;28;19955;-77
2021/10/15 11:20:06;;;;;;;;;;;11.60;99.90;;;;;;5061892;28;19918;-76
2021/10/15 11:22:31;;;;;;;;;;;11.60;99.90;;;;;;5087879;28;19916;-76
2021/10/15 11:24:57;;;;;;;;;;;11.50;99.90;;;;;;5078552;28;19916;-76
2021/10/15 11:27:23;;;;;;;;;;;11.50;99.90;;;;;;5087841;28;19912;-75
2021/10/15 11:29:50;;;;;;;;;;;11.50;99.90;;;;;;5065915;28;20409;-75
2021/10/15 11:32:27;;;;;;;;;;;11.50;99.90;;;;;;5082080;28;19938;-74
2021/10/15 11:35:05;;;;;;;;;;;11.50;99.90;;;;;;5085457;28;19970;-75
2021/10/15 11:37:41;;;;;;;;;;;11.50;99.90;;;;;;5069960;28;20314;-75
2021/10/15 11:40:12;;;;;;;;;;;11.50;99.90;;;;;;5087097;28;20387;-76
2021/10/15 11:42:38;;;;;;;;;;;11.50;99.90;;;;;;5086545;28;19920;-76
2021/10/15 11:45:19;;;;;;;;;;;11.50;99.90;;;;;;5080346;28;19925;-76
2021/10/15 11:47:55;;;;;;;;;;;11.50;99.90;;;;;;5084695;28;19912;-74
2021/10/15 11:50:37;;;;;;;;;;;11.40;99.90;;;;;;5084518;28;19924;-73
2021/10/15 11:53:03;;;;;;;;;;;11.50;99.90;;;;;;5083471;28;19964;-72
2021/10/15 11:55:31;;;;;;;;;;;11.40;99.90;;;;;;5081997;28;19993;-72
2021/10/15 11:58:15;;;;;;;;;;;11.40;99.90;;;;;;5085240;28;19916;-73
2021/10/15 12:00:59;;;;;;;;;;;11.30;99.90;;;;;;5082971;28;19919;-74
2021/10/15 12:03:34;;;;;;;;;;;11.30;99.90;;;;;;5062065;28;19913;-71
2021/10/15 12:06:10;;;;;;;;;;;11.30;99.90;;;;;;5061147;28;20774;-71
2021/10/15 12:08:36;;;;;;;;;;;11.20;99.90;;;;;;5081804;28;19912;-72
2021/10/15 12:11:01;;;;;;;;;;;11.20;99.90;;;;;;5064456;28;19995;-72
2021/10/15 12:13:27;;;;;;;;;;;11.20;99.90;;;;;;5085269;28;19916;-75
2021/10/15 12:15:52;;;;;;;;;;;11.30;99.90;;;;;;5083930;28;19970;-75
2021/10/15 12:18:19;;;;;;;;;;;11.40;99.90;;;;;;5084227;28;19916;-74
2021/10/15 12:20:45;;;;;;;;;;;11.50;99.90;;;;;;5083001;28;19986;-75
2021/10/15 12:23:10;;;;;;;;;;;11.60;99.90;;;;;;5068849;28;20363;-75
2021/10/15 12:25:36;;;;;;;;;;;11.70;99.90;;;;;;5062495;28;19938;-72
2021/10/15 12:28:14;;;;;;;;;;;11.80;99.90;;;;;;5084035;28;19966;-74
2021/10/15 12:30:39;;;;;;;;;;;11.80;99.90;;;;;;5081733;28;20287;-74
2021/10/15 12:33:09;;;;;;;;;;;11.80;99.90;;;;;;5063343;28;19912;-75
2021/10/15 12:35:34;;;;;;;;;;;11.70;99.90;;;;;;5086985;28;19947;-72
2021/10/15 12:38:00;;;;;;;;;;;11.80;99.90;;;;;;5062670;28;20199;-72
2021/10/15 12:40:28;;;;;;;;;;;11.80;99.90;;;;;;5085394;28;19912;-73
2021/10/15 12:43:06;;;;;;;;;;;11.80;99.90;;;;;;5077904;28;20367;-72
2021/10/15 12:45:35;;;;;;;;;;;11.80;99.90;;;;;;5060114;28;19946;-71
2021/10/15 12:48:04;;;;;;;;;;;11.80;99.90;;;;;;5085042;28;19916;-72
2021/10/15 12:50:31;;;;;;;;;;;11.80;99.90;;;;;;5059081;28;20006;-72
2021/10/15 12:52:56;;;;;;;;;;;11.80;99.90;;;;;;5084201;28;19977;-71
2021/10/15 12:55:27;;;;;;;;;;;11.90;99.90;;;;;;5082066;28;19916;-71
2021/10/15 12:58:05;;;;;;;;;;;11.90;99.80;;;;;;5072341;28;19918;-71
2021/10/15 13:00:31;;;;;;;;;;;12.00;99.30;;;;;;5067194;28;20003;-72
2021/10/15 13:03:04;;;;;;;;;;;12.00;99.60;;;;;;5062718;28;19934;-72
2021/10/15 13:05:30;;;;;;;;;;;12.00;99.20;;;;;;5078043;28;19920;-70
2021/10/15 13:07:56;;;;;;;;;;;12.00;98.10;;;;;;5066728;28;19949;-70
2021/10/15 13:10:22;;;;;;;;;;;12.00;98.30;;;;;;5062687;28;19959;-73
2021/10/15 13:12:49;;;;;;;;;;;12.00;97.50;;;;;;5056664;28;19952;-73
2021/10/15 13:15:15;;;;;;;;;;;12.00;98.60;;;;;;5075853;28;20414;-74
2021/10/15 13:17:41;;;;;;;;;;;12.20;98.50;;;;;;5086875;28;19916;-71
2021/10/15 13:20:07;;;;;;;;;;;12.20;98.40;;;;;;5085748;28;19927;-72
2021/10/15 13:22:33;;;;;;;;;;;12.20;98.30;;;;;;5078466;28;19924;-73
2021/10/15 13:24:59;;;;;;;;;;;12.20;97.70;;;;;;5063921;28;20082;-72
2021/10/15 13:27:24;;;;;;;;;;;12.20;98.20;;;;;;5076808;28;19958;-72
2021/10/15 13:29:50;;;;;;;;;;;12.20;98.20;;;;;;5080884;28;20002;-72
2021/10/15 13:32:15;;;;;;;;;;;12.30;98.10;;;;;;5082695;28;19952;-72
2021/10/15 13:34:48;;;;;;;;;;;12.30;97.50;;;;;;5067859;28;20386;-73
2021/10/15 13:37:18;;;;;;;;;;;12.30;98.00;;;;;;5065461;28;20394;-73
2021/10/15 13:39:47;;;;;;;;;;;12.30;98.00;;;;;;5080405;28;20475;-75
2021/10/15 13:50:29;;;;;;;;;;;12.70;97.30;;;;;;5068612;28;19924;-82
2021/10/15 13:52:55;;;;;;;;;;;12.70;97.00;;;;;;5081796;28;19924;-73
2021/10/15 13:55:20;;;;;;;;;;;12.60;96.60;;;;;;5080160;28;19923;-76
2021/10/15 13:57:46;;;;;;;;;;;12.60;96.80;;;;;;5079251;28;19916;-74
2021/10/15 14:00:15;;;;;;;;;;;12.60;96.90;;;;;;5084982;28;20480;-78
2021/10/15 14:02:47;;;;;;;;;;;12.60;97.00;;;;;;5067683;28;19919;-74
2021/10/15 14:05:13;;;;;;;;;;;12.70;97.10;;;;;;5086771;28;19920;-73
2021/10/15 14:07:38;;;;;;;;;;;12.70;97.20;;;;;;5082638;28;19916;-73
2021/10/15 14:10:04;;;;;;;;;;;12.70;96.20;;;;;;5089374;28;19931;-74
2021/10/15 14:12:29;;;;;;;;;;;12.70;95.00;;;;;;5085312;28;19912;-73
2021/10/15 14:14:55;;;;;;;;;;;12.70;95.20;;;;;;5089088;28;20413;-73
2021/10/15 14:17:21;;;;;;;;;;;12.70;95.50;;;;;;5088290;28;20166;-73
2021/10/15 14:19:46;;;;;;;;;;;12.70;95.30;;;;;;5071067;28;19912;-73
2021/10/15 14:22:12;;;;;;;;;;;12.60;95.00;;;;;;5087392;28;19981;-73
2021/10/15 14:24:37;;;;;;;;;;;12.60;94.70;;;;;;5089848;28;19979;-73
2021/10/15 14:27:04;;;;;;;;;;;12.60;94.50;;;;;;5085908;28;19995;-73
2021/10/15 14:29:30;;;;;;;;;;;12.60;93.90;;;;;;5069713;28;19916;-72
2021/10/15 14:31:55;;;;;;;;;;;12.50;94.10;;;;;;5087732;28;19908;-72
2021/10/15 14:34:20;;;;;;;;;;;12.50;94.30;;;;;;5087939;28;20026;-72
2021/10/15 14:36:46;;;;;;;;;;;12.50;94.70;;;;;;5089667;28;19947;-73